Terminal Aerodrome Forecast
Issued by NWS Spokane, WA

Home | Current Version | Previous Version | Text Only | Print | Product List | Glossary On
Versions: 1 2 3 4 5 6 7 8 9 10 11 12 13 14 15 16 17 18 19 20 21 22 23 24 25 26 27 28 29 30 31 32 33 34 35 36 37 38 39 40 41 42 43 44 45 46 47 48 49 50
000
FTUS46 KOTX 221739
TAFGEG
TAF
KGEG 221739Z 2218/2318 23003KT 4SM BR BKN007 OVC015
     FM221900 22008KT P6SM SCT009 BKN016
     FM230000 28006KT P6SM SCT015 BKN120
     FM230600 VRB04KT P6SM BCFG SCT003
     FM231000 VRB03KT 3SM BR OVC004
     FM231400 VRB04KT 1SM BR OVC002=

USA.gov is the U.S. government's official web portal to all federal, state and local government web resources and services.